createdAt,value
2022-08-26T00:01:55.668Z,15.30
2022-08-26T00:04:25.336Z,15.28
2022-08-26T00:06:53.531Z,15.29
2022-08-26T00:09:20.702Z,14.87
2022-08-26T00:11:47.729Z,15.05
2022-08-26T00:14:16.256Z,14.96
2022-08-26T00:16:48.057Z,15.01
2022-08-26T00:19:20.353Z,15.05
2022-08-26T00:21:48.678Z,15.15
2022-08-26T00:24:17.992Z,15.25
2022-08-26T00:26:44.780Z,15.16
2022-08-26T00:29:12.389Z,15.16
2022-08-26T00:31:40.278Z,15.17
2022-08-26T00:34:09.559Z,15.02
2022-08-26T00:36:39.566Z,14.99
2022-08-26T00:39:08.492Z,15.07
2022-08-26T00:41:38.029Z,15.04
2022-08-26T00:44:05.748Z,14.96
2022-08-26T00:46:38.498Z,14.81
2022-08-26T00:49:17.489Z,14.94
2022-08-26T00:51:49.423Z,14.92
2022-08-26T00:54:17.982Z,14.88
2022-08-26T00:57:02.767Z,14.94
2022-08-26T00:59:33.269Z,14.63
2022-08-26T01:02:01.016Z,14.75
2022-08-26T01:04:31.431Z,14.66
2022-08-26T01:06:59.199Z,14.47
2022-08-26T01:09:26.232Z,14.46
2022-08-26T01:11:57.577Z,14.43
2022-08-26T01:14:26.969Z,14.46
2022-08-26T01:16:54.631Z,14.51
2022-08-26T01:19:33.280Z,14.62
2022-08-26T01:22:28.204Z,14.66
2022-08-26T01:24:57.561Z,14.68
2022-08-26T01:27:24.971Z,14.21
2022-08-26T01:29:52.012Z,14.19
2022-08-26T01:32:22.587Z,14.12
2022-08-26T01:34:50.687Z,14.29
2022-08-26T01:37:22.952Z,14.09
2022-08-26T01:39:57.337Z,14.21
2022-08-26T01:42:26.045Z,14.05
2022-08-26T01:45:02.273Z,14.11
2022-08-26T01:47:31.913Z,14.17
2022-08-26T01:50:01.688Z,14.18
2022-08-26T01:52:33.465Z,14.22
2022-08-26T01:55:01.021Z,14.31
2022-08-26T01:57:28.697Z,14.25
2022-08-26T02:00:01.505Z,14.27
2022-08-26T02:02:28.414Z,14.19
2022-08-26T02:05:04.494Z,14.16
2022-08-26T02:07:33.276Z,14.21
2022-08-26T02:10:00.843Z,14.14
2022-08-26T02:12:27.716Z,14.24
2022-08-26T02:14:58.123Z,14.15
2022-08-26T02:17:33.291Z,14.15
2022-08-26T02:20:02.406Z,14.28
2022-08-26T02:22:30.985Z,14.34
2022-08-26T02:25:20.780Z,14.47
2022-08-26T02:27:51.345Z,14.48
2022-08-26T02:30:25.007Z,14.74
2022-08-26T02:32:53.208Z,14.85
2022-08-26T02:35:22.056Z,15.06
2022-08-26T02:37:53.266Z,15.23
2022-08-26T02:40:24.310Z,15.28
2022-08-26T02:42:52.975Z,15.38
2022-08-26T02:45:23.824Z,15.62
2022-08-26T02:47:51.748Z,15.72
2022-08-26T02:50:19.715Z,15.80
2022-08-26T02:52:48.507Z,15.85
2022-08-26T02:55:15.695Z,15.83
2022-08-26T02:57:45.108Z,16.10
2022-08-26T03:00:14.854Z,16.09
2022-08-26T03:02:42.145Z,15.99
2022-08-26T03:05:12.097Z,15.78
2022-08-26T03:07:39.371Z,15.76
2022-08-26T03:10:08.799Z,15.46
2022-08-26T03:12:36.270Z,15.37
2022-08-26T03:15:03.368Z,14.93
2022-08-26T03:17:46.404Z,14.91
2022-08-26T03:20:13.752Z,14.60
2022-08-26T03:22:43.186Z,14.56
2022-08-26T03:25:12.879Z,14.30
2022-08-26T03:27:41.850Z,14.25
2022-08-26T03:30:31.046Z,14.24
2022-08-26T03:32:58.498Z,13.95
2022-08-26T03:35:25.931Z,13.92
2022-08-26T03:37:53.701Z,14.00
2022-08-26T03:40:21.383Z,14.07
2022-08-26T03:42:49.489Z,14.07
2022-08-26T03:45:18.384Z,14.17
2022-08-26T03:47:46.391Z,14.19
2022-08-26T03:50:22.994Z,14.15
2022-08-26T03:52:55.797Z,14.18
2022-08-26T03:55:31.070Z,14.01
2022-08-26T03:57:58.625Z,14.05
2022-08-26T04:00:25.459Z,14.01
2022-08-26T04:02:53.245Z,14.13
2022-08-26T04:05:21.935Z,14.27
2022-08-26T04:07:51.192Z,13.96
2022-08-26T04:10:22.139Z,13.97
2022-08-26T04:12:58.844Z,14.12
2022-08-26T04:15:27.034Z,14.19
2022-08-26T04:17:54.027Z,14.22
2022-08-26T04:20:22.574Z,14.31
2022-08-26T04:22:49.351Z,14.33
2022-08-26T04:25:16.765Z,14.44
2022-08-26T04:27:43.401Z,14.59
2022-08-26T04:30:11.187Z,14.75
2022-08-26T04:32:38.701Z,14.45
2022-08-26T04:35:06.198Z,14.75
2022-08-26T04:37:33.615Z,14.84
2022-08-26T04:40:00.772Z,14.93
2022-08-26T04:42:29.359Z,14.93
2022-08-26T04:44:56.053Z,15.08
2022-08-26T04:47:22.743Z,14.97
2022-08-26T04:49:49.727Z,14.95
2022-08-26T04:52:17.082Z,15.30
2022-08-26T04:54:43.981Z,15.18
2022-08-26T04:57:11.141Z,15.37
2022-08-26T04:59:39.497Z,15.44
2022-08-26T05:02:08.864Z,15.38
2022-08-26T05:04:36.143Z,15.44
2022-08-26T05:07:05.410Z,15.25
2022-08-26T05:09:33.189Z,15.88
2022-08-26T05:11:59.816Z,16.08
2022-08-26T05:14:30.739Z,17.66
2022-08-26T05:16:57.389Z,19.43
2022-08-26T05:19:24.822Z,20.42
2022-08-26T05:21:54.536Z,21.46
2022-08-26T05:24:21.908Z,22.72
2022-08-26T05:26:48.588Z,23.26
2022-08-26T05:29:17.642Z,24.03
2022-08-26T05:31:44.670Z,24.82
2022-08-26T05:34:11.756Z,25.70
2022-08-26T05:36:39.254Z,26.28
2022-08-26T05:39:06.971Z,23.98
2022-08-26T05:41:38.341Z,22.48
2022-08-26T05:44:07.567Z,22.44
2022-08-26T05:46:36.693Z,22.60
2022-08-26T05:49:05.896Z,22.22
2022-08-26T05:51:35.087Z,22.35
2022-08-26T05:54:03.636Z,23.76
2022-08-26T05:56:30.694Z,23.41
2022-08-26T05:58:59.936Z,22.46
2022-08-26T06:01:28.658Z,22.78
2022-08-26T06:04:03.623Z,23.33
2022-08-26T06:06:33.950Z,23.20
2022-08-26T06:09:02.544Z,23.12
2022-08-26T06:11:32.183Z,22.67
2022-08-26T06:14:04.041Z,22.28
2022-08-26T06:16:33.676Z,21.96
2022-08-26T06:19:03.324Z,22.18
2022-08-26T06:21:36.158Z,21.66
2022-08-26T06:24:27.441Z,21.76
2022-08-26T06:26:57.345Z,22.64
2022-08-26T06:29:26.477Z,23.06
2022-08-26T06:31:54.842Z,24.44
2022-08-26T06:34:29.940Z,25.66
2022-08-26T06:36:59.919Z,26.09
2022-08-26T06:39:31.484Z,25.67
2022-08-26T06:41:59.806Z,24.67
2022-08-26T06:44:29.521Z,24.43
2022-08-26T06:46:56.218Z,23.95
2022-08-26T06:49:27.465Z,24.33
2022-08-26T06:52:02.938Z,24.67
2022-08-26T06:54:32.637Z,23.91
2022-08-26T06:57:00.067Z,23.97
2022-08-26T06:59:26.768Z,24.51
2022-08-26T07:01:55.054Z,27.25
2022-08-26T07:04:24.698Z,27.54
2022-08-26T07:06:55.178Z,27.48
2022-08-26T07:09:28.399Z,27.72
2022-08-26T07:11:58.619Z,27.44
2022-08-26T07:14:26.224Z,27.96
2022-08-26T07:16:53.518Z,25.39
2022-08-26T07:19:29.778Z,26.45
2022-08-26T07:22:02.074Z,26.13
2022-08-26T07:24:29.257Z,26.42
2022-08-26T07:27:03.799Z,25.97
2022-08-26T07:29:33.314Z,24.69
2022-08-26T07:32:00.468Z,24.72
2022-08-26T07:34:27.720Z,24.34
2022-08-26T07:36:55.474Z,24.24
2022-08-26T07:39:25.045Z,25.17
2022-08-26T07:41:52.709Z,24.90
2022-08-26T07:44:19.439Z,24.57
2022-08-26T07:46:53.211Z,23.65
2022-08-26T07:49:22.210Z,23.91
2022-08-26T07:51:50.397Z,22.98
2022-08-26T07:54:17.285Z,22.78
2022-08-26T07:56:47.014Z,22.44
2022-08-26T07:59:16.194Z,22.50
2022-08-26T08:01:44.753Z,22.54
2022-08-26T08:04:17.431Z,23.06
2022-08-26T08:06:45.720Z,24.43
2022-08-26T08:09:15.641Z,26.05
2022-08-26T08:11:45.863Z,26.78
2022-08-26T08:14:15.538Z,27.61
2022-08-26T08:16:47.021Z,28.45
2022-08-26T08:19:18.146Z,28.50
2022-08-26T08:21:46.152Z,28.46
2022-08-26T08:24:12.895Z,29.61
2022-08-26T08:26:40.133Z,28.05
2022-08-26T08:29:09.950Z,27.36
2022-08-26T08:34:25.980Z,26.60
2022-08-26T08:36:53.228Z,26.97
2022-08-26T08:39:20.427Z,25.30
2022-08-26T08:42:00.587Z,24.76
2022-08-26T08:44:33.965Z,24.76
2022-08-26T08:47:21.654Z,24.80
2022-08-26T08:49:48.311Z,24.79
2022-08-26T08:52:38.485Z,24.49
2022-08-26T08:55:11.031Z,24.56
2022-08-26T08:58:05.005Z,25.44
2022-08-26T09:00:45.128Z,26.55
2022-08-26T09:03:42.693Z,26.02
2022-08-26T09:06:18.809Z,26.14
2022-08-26T09:08:50.118Z,26.60
2022-08-26T09:11:19.812Z,26.70
2022-08-26T09:13:52.579Z,26.26
2022-08-26T09:16:27.716Z,26.65
2022-08-26T09:19:37.145Z,26.14
2022-08-26T09:22:09.375Z,25.74
2022-08-26T09:24:42.086Z,25.38
2022-08-26T09:27:40.005Z,26.54
2022-08-26T09:30:07.758Z,26.24
2022-08-26T09:32:38.422Z,25.22
2022-08-26T09:35:24.075Z,25.55
2022-08-26T09:40:40.907Z,24.85
2022-08-26T09:43:23.173Z,25.49
2022-08-26T09:45:59.546Z,25.09
2022-08-26T09:48:34.349Z,26.07
2022-08-26T09:51:27.488Z,25.98
2022-08-26T09:54:00.668Z,26.21
2022-08-26T09:56:33.306Z,26.31
2022-08-26T09:59:01.762Z,25.55
2022-08-26T10:01:42.182Z,25.56
2022-08-26T10:04:16.442Z,25.75
2022-08-26T10:07:05.740Z,25.67
2022-08-26T10:09:46.388Z,25.36
2022-08-26T10:12:23.734Z,25.31
2022-08-26T10:14:56.253Z,25.68
2022-08-26T10:17:34.058Z,25.32
2022-08-26T10:20:34.830Z,25.51
2022-08-26T10:23:04.768Z,25.34
2022-08-26T10:25:43.837Z,25.71
2022-08-26T10:28:20.579Z,26.43
2022-08-26T10:30:56.214Z,26.75
2022-08-26T10:33:23.994Z,26.26
2022-08-26T10:35:57.705Z,26.96
2022-08-26T10:38:34.838Z,26.89
2022-08-26T10:41:13.802Z,26.84
2022-08-26T10:43:52.532Z,26.41
2022-08-26T10:46:27.323Z,26.18
2022-08-26T10:49:11.092Z,25.75
2022-08-26T10:52:22.047Z,25.77
2022-08-26T10:55:08.532Z,25.93
2022-08-26T10:57:50.077Z,25.32
2022-08-26T11:00:42.422Z,25.20
2022-08-26T11:03:34.418Z,24.96
2022-08-26T11:06:21.488Z,24.30
2022-08-26T11:08:53.094Z,24.28
2022-08-26T11:11:41.532Z,24.35
2022-08-26T11:14:28.456Z,24.12
2022-08-26T11:16:59.236Z,23.73
2022-08-26T11:20:01.197Z,23.87
2022-08-26T11:22:36.245Z,23.73
2022-08-26T11:25:09.542Z,23.58
2022-08-26T11:27:40.791Z,23.38
2022-08-26T11:30:21.825Z,22.90
2022-08-26T11:32:56.938Z,22.95
2022-08-26T11:35:24.358Z,22.93
2022-08-26T11:37:57.328Z,22.90
2022-08-26T11:40:28.564Z,22.79
2022-08-26T11:43:23.539Z,23.08
2022-08-26T11:46:04.337Z,23.19
2022-08-26T11:48:33.980Z,23.11
2022-08-26T11:51:07.627Z,23.14
2022-08-26T11:53:42.468Z,23.18
2022-08-26T11:56:32.528Z,23.06
2022-08-26T11:59:03.676Z,22.89
2022-08-26T12:01:38.015Z,23.19
2022-08-26T12:04:08.398Z,23.40
2022-08-26T12:06:45.072Z,23.57
2022-08-26T12:09:27.449Z,23.48
2022-08-26T12:12:12.532Z,23.77
2022-08-26T12:14:39.737Z,23.76
2022-08-26T12:17:16.315Z,23.77
2022-08-26T12:19:44.017Z,23.61
2022-08-26T12:22:36.138Z,23.47
2022-08-26T12:25:06.866Z,23.49
2022-08-26T12:27:43.139Z,23.43
2022-08-26T12:30:19.200Z,22.85
2022-08-26T12:32:57.871Z,23.17
2022-08-26T12:35:26.910Z,23.29
2022-08-26T12:37:56.915Z,23.39
2022-08-26T12:40:47.779Z,23.54
2022-08-26T12:43:35.567Z,23.83
2022-08-26T12:46:06.513Z,23.62
2022-08-26T12:48:39.598Z,23.83
2022-08-26T12:51:09.316Z,24.02
2022-08-26T12:53:43.198Z,24.03
2022-08-26T12:56:25.147Z,23.90
2022-08-26T12:59:26.706Z,24.07
2022-08-26T13:01:54.741Z,23.92
2022-08-26T13:04:46.530Z,24.15
2022-08-26T13:07:22.985Z,24.05
2022-08-26T13:09:56.307Z,23.96
2022-08-26T13:12:25.559Z,23.14
2022-08-26T13:14:52.242Z,23.67
2022-08-26T13:17:19.042Z,23.96
2022-08-26T13:19:45.673Z,24.35
2022-08-26T13:22:13.775Z,24.32
2022-08-26T13:24:43.421Z,23.59
2022-08-26T13:27:12.863Z,23.44
2022-08-26T13:29:39.566Z,23.35
2022-08-26T13:32:07.861Z,23.39
2022-08-26T13:34:39.355Z,23.77
2022-08-26T13:37:06.446Z,23.73
2022-08-26T13:39:33.580Z,23.61
2022-08-26T13:42:02.258Z,23.43
2022-08-26T13:44:28.918Z,23.64
2022-08-26T13:46:55.608Z,23.69
2022-08-26T13:49:22.737Z,23.86
2022-08-26T13:51:49.390Z,23.55
2022-08-26T13:54:20.721Z,23.74
2022-08-26T13:56:47.398Z,23.79
2022-08-26T13:59:14.261Z,23.53
2022-08-26T14:01:41.121Z,23.73
2022-08-26T14:04:08.432Z,23.53
2022-08-26T14:06:35.086Z,23.50
2022-08-26T14:09:04.426Z,23.65
2022-08-26T14:11:39.099Z,23.67
2022-08-26T14:14:18.204Z,23.83
2022-08-26T14:16:58.849Z,23.91
2022-08-26T14:19:28.140Z,23.72
2022-08-26T14:21:54.799Z,23.81
2022-08-26T14:24:22.439Z,23.70
2022-08-26T14:26:49.168Z,23.73
2022-08-26T14:29:16.819Z,23.79
2022-08-26T14:31:44.271Z,23.61
2022-08-26T14:34:13.890Z,23.70
2022-08-26T14:36:40.599Z,23.59
2022-08-26T14:39:10.142Z,23.80
2022-08-26T14:41:43.900Z,23.70
2022-08-26T14:44:14.774Z,23.68
2022-08-26T14:46:52.999Z,23.59
2022-08-26T14:49:21.639Z,23.84
2022-08-26T14:51:48.749Z,23.94
2022-08-26T14:54:18.227Z,23.93
2022-08-26T14:56:58.953Z,23.88
2022-08-26T14:59:31.557Z,24.15
2022-08-26T15:01:59.189Z,24.05
2022-08-26T15:04:26.576Z,23.85
2022-08-26T15:06:56.364Z,23.67
2022-08-26T15:09:23.826Z,23.70
2022-08-26T15:11:51.006Z,23.64
2022-08-26T15:14:19.477Z,23.49
2022-08-26T15:16:56.979Z,23.36
2022-08-26T15:19:25.189Z,23.27
2022-08-26T15:21:52.033Z,23.33
2022-08-26T15:24:24.105Z,23.26
2022-08-26T15:26:53.366Z,23.45
2022-08-26T15:29:20.784Z,23.33
2022-08-26T15:31:51.084Z,23.27
2022-08-26T15:34:17.887Z,23.37
2022-08-26T15:36:46.541Z,23.24
2022-08-26T15:39:14.974Z,23.35
2022-08-26T15:41:41.689Z,22.95
2022-08-26T15:44:10.104Z,22.96
2022-08-26T15:46:37.541Z,22.80
2022-08-26T15:49:06.444Z,22.74
2022-08-26T15:51:45.666Z,22.50
2022-08-26T15:54:19.314Z,22.40
2022-08-26T15:56:47.924Z,22.29
2022-08-26T15:59:14.755Z,22.23
2022-08-26T16:01:43.532Z,22.28
2022-08-26T16:04:14.703Z,22.37
2022-08-26T16:06:42.497Z,22.35
2022-08-26T16:09:10.134Z,22.20
2022-08-26T16:11:37.798Z,22.00
2022-08-26T16:14:05.961Z,22.13
2022-08-26T16:16:34.814Z,22.04
2022-08-26T16:19:05.612Z,22.09
2022-08-26T16:21:35.722Z,22.00
2022-08-26T16:24:03.529Z,21.97
2022-08-26T16:26:32.917Z,21.77
2022-08-26T16:29:06.599Z,21.70
2022-08-26T16:31:33.903Z,21.59
2022-08-26T16:34:00.951Z,21.34
2022-08-26T16:36:28.091Z,21.33
2022-08-26T16:38:56.355Z,21.29
2022-08-26T16:41:25.108Z,21.27
2022-08-26T16:43:52.680Z,21.31
2022-08-26T16:46:22.186Z,21.12
2022-08-26T16:48:49.051Z,21.16
2022-08-26T16:51:18.205Z,20.99
2022-08-26T16:53:46.035Z,20.94
2022-08-26T16:56:19.309Z,20.88
2022-08-26T16:58:48.251Z,20.74
2022-08-26T17:01:16.444Z,20.87
2022-08-26T17:03:43.980Z,20.83
2022-08-26T17:06:10.850Z,20.79
2022-08-26T17:08:39.461Z,20.74
2022-08-26T17:11:07.167Z,20.14
2022-08-26T17:13:35.241Z,20.01
2022-08-26T17:16:05.061Z,20.12
2022-08-26T17:18:33.424Z,20.02
2022-08-26T17:21:06.317Z,20.08
2022-08-26T17:23:33.840Z,20.08
2022-08-26T17:26:00.615Z,19.98
2022-08-26T17:28:27.443Z,19.82
2022-08-26T17:30:57.950Z,19.75
2022-08-26T17:33:25.666Z,19.29
2022-08-26T17:35:53.260Z,19.53
2022-08-26T17:38:23.501Z,19.34
2022-08-26T17:40:50.379Z,18.97
2022-08-26T17:43:18.236Z,19.09
2022-08-26T17:45:44.902Z,18.99
2022-08-26T17:48:12.480Z,19.10
2022-08-26T17:50:41.376Z,19.02
2022-08-26T17:53:12.684Z,19.05
2022-08-26T17:55:45.908Z,18.84
2022-08-26T17:58:14.734Z,18.71
2022-08-26T18:00:47.201Z,18.82
2022-08-26T18:03:14.105Z,18.73
2022-08-26T18:05:43.638Z,18.76
2022-08-26T18:08:10.271Z,18.50
2022-08-26T18:10:36.931Z,18.50
2022-08-26T18:13:03.557Z,18.53
2022-08-26T18:15:30.254Z,18.49
2022-08-26T18:17:56.879Z,18.47
2022-08-26T18:20:23.564Z,18.33
2022-08-26T18:22:54.743Z,18.29
2022-08-26T18:25:21.997Z,18.27
2022-08-26T18:27:48.673Z,18.28
2022-08-26T18:30:18.437Z,18.25
2022-08-26T18:32:45.236Z,18.17
2022-08-26T18:35:12.339Z,18.13
2022-08-26T18:37:39.951Z,17.80
2022-08-26T18:40:09.736Z,17.78
2022-08-26T18:42:37.708Z,17.81
2022-08-26T18:45:06.336Z,17.90
2022-08-26T18:47:33.716Z,17.86
2022-08-26T18:50:01.439Z,17.77
2022-08-26T18:52:28.377Z,17.70
2022-08-26T18:54:55.439Z,17.63
2022-08-26T18:57:22.299Z,17.61
2022-08-26T18:59:49.217Z,17.46
2022-08-26T19:02:16.007Z,17.47
2022-08-26T19:04:44.190Z,17.42
2022-08-26T19:07:11.044Z,17.39
2022-08-26T19:09:37.764Z,17.39
2022-08-26T19:12:05.344Z,17.12
2022-08-26T19:14:35.068Z,17.26
2022-08-26T19:17:03.939Z,17.15
2022-08-26T19:19:33.758Z,17.19
2022-08-26T19:22:01.057Z,17.12
2022-08-26T19:24:28.356Z,17.06
2022-08-26T19:26:58.437Z,17.07
2022-08-26T19:29:28.708Z,16.99
2022-08-26T19:31:55.690Z,16.58
2022-08-26T19:34:22.422Z,16.56
2022-08-26T19:36:51.834Z,16.50
2022-08-26T19:39:19.521Z,16.49
2022-08-26T19:41:46.261Z,16.30
2022-08-26T19:44:39.293Z,16.14
2022-08-26T19:47:09.254Z,16.06
2022-08-26T19:49:38.321Z,16.11
2022-08-26T19:52:06.720Z,16.04
2022-08-26T19:54:34.617Z,16.13
2022-08-26T19:57:01.283Z,16.11
2022-08-26T19:59:29.303Z,16.08
2022-08-26T20:02:01.348Z,15.91
2022-08-26T20:04:30.403Z,15.89
2022-08-26T20:06:57.802Z,15.97
2022-08-26T20:09:30.042Z,15.95
2022-08-26T20:11:58.728Z,15.82
2022-08-26T20:14:26.261Z,15.80
2022-08-26T20:16:53.039Z,15.69
2022-08-26T20:19:38.574Z,15.79
2022-08-26T20:22:05.750Z,15.85
2022-08-26T20:24:34.160Z,15.87
2022-08-26T20:27:05.476Z,15.88
2022-08-26T20:29:34.902Z,15.90
2022-08-26T20:32:02.808Z,15.38
2022-08-26T20:34:30.785Z,15.53
2022-08-26T20:36:57.889Z,15.54
2022-08-26T20:39:24.621Z,15.65
2022-08-26T20:41:51.502Z,15.68
2022-08-26T20:44:18.173Z,15.68
2022-08-26T20:46:45.584Z,15.64
2022-08-26T20:49:13.430Z,15.52
2022-08-26T20:51:40.738Z,15.62
2022-08-26T20:54:07.659Z,15.46
2022-08-26T20:56:34.923Z,15.44
2022-08-26T20:59:03.321Z,15.50
2022-08-26T21:01:34.634Z,15.51
2022-08-26T21:04:11.160Z,15.44
2022-08-26T21:06:42.353Z,15.26
2022-08-26T21:09:16.697Z,15.31
2022-08-26T21:11:45.616Z,15.23
2022-08-26T21:14:16.210Z,15.23
2022-08-26T21:16:45.215Z,15.09
2022-08-26T21:19:15.070Z,15.12
2022-08-26T21:21:42.507Z,14.92
2022-08-26T21:24:09.427Z,15.00
2022-08-26T21:26:36.293Z,15.11
2022-08-26T21:29:04.724Z,15.14
2022-08-26T21:31:32.229Z,15.04
2022-08-26T21:33:59.794Z,15.11
2022-08-26T21:36:26.991Z,15.11
2022-08-26T21:38:59.525Z,15.06
2022-08-26T21:41:30.091Z,15.07
2022-08-26T21:44:01.474Z,14.97
2022-08-26T21:46:30.404Z,14.92
2022-08-26T21:49:00.249Z,15.05
2022-08-26T21:51:34.367Z,15.01
2022-08-26T21:54:02.811Z,15.03
2022-08-26T21:56:31.653Z,14.96
2022-08-26T21:58:59.967Z,14.94
2022-08-26T22:01:31.929Z,14.83
2022-08-26T22:03:59.088Z,14.73
2022-08-26T22:06:27.662Z,14.92
2022-08-26T22:08:55.924Z,14.81
2022-08-26T22:11:22.869Z,14.74
2022-08-26T22:13:50.545Z,14.61
2022-08-26T22:16:19.203Z,14.66
2022-08-26T22:18:46.286Z,14.57
2022-08-26T22:21:20.678Z,14.53
2022-08-26T22:23:47.682Z,14.54
2022-08-26T22:26:20.602Z,14.62
2022-08-26T22:28:54.152Z,14.63
2022-08-26T22:31:27.962Z,14.64
2022-08-26T22:33:57.298Z,14.58
2022-08-26T22:36:29.700Z,14.63
2022-08-26T22:38:58.456Z,14.43
2022-08-26T22:41:26.370Z,14.52
2022-08-26T22:43:53.106Z,14.30
2022-08-26T22:46:22.606Z,14.35
2022-08-26T22:48:53.837Z,14.24
2022-08-26T22:51:21.973Z,14.35
2022-08-26T22:53:50.815Z,14.41
2022-08-26T22:56:19.099Z,14.45
2022-08-26T22:58:45.875Z,14.52
2022-08-26T23:01:16.288Z,14.43
2022-08-26T23:03:43.795Z,14.33
2022-08-26T23:06:10.709Z,14.31
2022-08-26T23:08:38.854Z,14.03
2022-08-26T23:11:10.508Z,13.83
2022-08-26T23:13:38.148Z,14.13
2022-08-26T23:16:11.771Z,14.27
2022-08-26T23:18:40.794Z,14.32
2022-08-26T23:21:08.186Z,14.38
2022-08-26T23:23:35.478Z,14.49
2022-08-26T23:26:06.173Z,14.62
2022-08-26T23:28:33.444Z,14.72
2022-08-26T23:31:00.228Z,14.76
2022-08-26T23:33:46.927Z,14.78
2022-08-26T23:36:17.952Z,14.64
2022-08-26T23:38:48.130Z,14.58
2022-08-26T23:41:21.257Z,14.45
2022-08-26T23:43:47.882Z,14.39
2022-08-26T23:46:15.059Z,14.54
2022-08-26T23:48:41.784Z,14.57
2022-08-26T23:51:28.474Z,14.56
2022-08-26T23:53:58.493Z,14.58
2022-08-26T23:56:26.755Z,14.54
2022-08-26T23:58:54.033Z,14.49
